Time;durP1;ratioP1;P1;durP2;ratioP2;P2;SDS_P1;SDS_P2;PMS_P1;PMS_P2;Temp;Humidity;BMP_temperature;BMP_pressure;BME280_temperature;BME280_humidity;BME280_pressure;Samples;Min_cycle;Max_cycle;Signal;HPM_P1;HPM_P2
2022/04/16 00:01:19;;;;;;;6.03;3.93;;;;;;;;;;4936584;29;20210;-88
2022/04/16 00:03:47;;;;;;;6.70;3.70;;;;;;;;;;4937569;29;20306;-88
2022/04/16 00:06:16;;;;;;;9.30;3.70;;;;;;;;;;4936618;29;20269;-88
2022/04/16 00:08:44;;;;;;;9.70;4.57;;;;;;;;;;4936498;29;20212;-88
2022/04/16 00:11:14;;;;;;;5.77;3.63;;;;;;;;;;4936161;29;20260;-88
2022/04/16 00:13:42;;;;;;;6.57;5.37;;;;;;;;;;4936561;29;20278;-88
2022/04/16 00:16:11;;;;;;;11.50;6.13;;;;;;;;;;4936194;29;20210;-88
2022/04/16 00:18:40;;;;;;;8.60;5.60;;;;;;;;;;4935999;29;20230;-88
2022/04/16 00:21:08;;;;;;;5.73;4.57;;;;;;;;;;4936660;29;20210;-88
2022/04/16 00:23:37;;;;;;;7.30;5.03;;;;;;;;;;4936126;29;20301;-88
2022/04/16 00:26:07;;;;;;;7.73;6.00;;;;;;;;;;4936472;29;20202;-88
2022/04/16 00:28:36;;;;;;;7.43;6.10;;;;;;;;;;4935977;29;20202;-88
2022/04/16 00:31:05;;;;;;;3.50;2.83;;;;;;;;;;4937584;29;20203;-87
2022/04/16 00:33:33;;;;;;;8.80;7.73;;;;;;;;;;4955567;29;20292;-88
2022/04/16 00:36:02;;;;;;;11.27;7.83;;;;;;;;;;4955116;29;20266;-88
2022/04/16 00:38:31;;;;;;;7.60;6.33;;;;;;;;;;4955294;29;20260;-88
2022/04/16 00:41:00;;;;;;;11.47;7.17;;;;;;;;;;4955254;29;20201;-88
2022/04/16 00:43:29;;;;;;;13.20;10.40;;;;;;;;;;4955683;28;20208;-88
2022/04/16 00:45:59;;;;;;;6.90;5.30;;;;;;;;;;4954854;29;20214;-88
2022/04/16 00:48:28;;;;;;;10.43;8.93;;;;;;;;;;4954714;29;20295;-87
2022/04/16 00:50:57;;;;;;;9.80;8.67;;;;;;;;;;4954904;29;20212;-88
2022/04/16 00:53:27;;;;;;;4.67;4.20;;;;;;;;;;4955141;29;20212;-88
2022/04/16 00:55:56;;;;;;;10.50;9.33;;;;;;;;;;4954988;29;20219;-88
2022/04/16 00:58:25;;;;;;;10.97;8.27;;;;;;;;;;4963966;28;20206;-88
2022/04/16 01:00:53;;;;;;;11.30;9.40;;;;;;;;;;4939953;29;20211;-88
2022/04/16 01:03:23;;;;;;;12.23;9.87;;;;;;;;;;4952756;29;20202;-88
2022/04/16 01:05:51;;;;;;;11.70;10.50;;;;;;;;;;4951531;29;20227;-88
2022/04/16 01:08:20;;;;;;;15.33;10.80;;;;;;;;;;4935247;29;20202;-88
2022/04/16 01:10:48;;;;;;;12.50;7.60;;;;;;;;;;4935188;29;20242;-88
2022/04/16 01:13:18;;;;;;;7.57;6.77;;;;;;;;;;4935264;29;20206;-88
2022/04/16 01:15:47;;;;;;;12.77;9.03;;;;;;;;;;4949683;29;20208;-88
2022/04/16 01:18:16;;;;;;;8.37;7.00;;;;;;;;;;4954439;29;20204;-88
2022/04/16 01:20:45;;;;;;;4.07;3.47;;;;;;;;;;4955629;28;20236;-88
2022/04/16 01:23:16;;;;;;;7.67;6.90;;;;;;;;;;4954629;29;20211;-88
2022/04/16 01:25:44;;;;;;;10.37;8.43;;;;;;;;;;4970498;28;20209;-87
2022/04/16 01:28:13;;;;;;;10.93;7.43;;;;;;;;;;4954515;29;20220;-88
2022/04/16 01:30:41;;;;;;;8.90;7.63;;;;;;;;;;4954021;29;20204;-88
2022/04/16 01:33:10;;;;;;;7.17;6.47;;;;;;;;;;4937625;29;20206;-87
2022/04/16 01:35:38;;;;;;;15.03;8.93;;;;;;;;;;4935491;29;20214;-88
2022/04/16 01:38:07;;;;;;;8.40;6.67;;;;;;;;;;4935163;29;20204;-88
2022/04/16 01:40:38;;;;;;;11.93;8.77;;;;;;;;;;4935023;29;20312;-88
2022/04/16 01:43:07;;;;;;;13.60;10.07;;;;;;;;;;4936227;29;20208;-88
2022/04/16 01:45:35;;;;;;;10.60;8.13;;;;;;;;;;4934885;29;20220;-88
2022/04/16 01:48:04;;;;;;;19.87;10.03;;;;;;;;;;4935230;29;20209;-87
2022/04/16 01:50:32;;;;;;;10.60;9.50;;;;;;;;;;4935143;29;20232;-88
2022/04/16 01:53:01;;;;;;;15.77;11.03;;;;;;;;;;4935181;29;20210;-88
2022/04/16 01:55:29;;;;;;;9.67;7.80;;;;;;;;;;4934510;29;20271;-88
2022/04/16 01:57:59;;;;;;;12.17;9.60;;;;;;;;;;4934841;29;20213;-87
2022/04/16 02:00:28;;;;;;;10.03;9.00;;;;;;;;;;4934682;29;20316;-88
2022/04/16 02:02:57;;;;;;;11.10;9.47;;;;;;;;;;4934938;29;20212;-88
2022/04/16 02:05:26;;;;;;;14.17;11.77;;;;;;;;;;4936278;29;20238;-87
2022/04/16 02:07:54;;;;;;;12.13;8.87;;;;;;;;;;4953885;29;20217;-88
2022/04/16 02:10:23;;;;;;;14.43;9.50;;;;;;;;;;4953694;28;20261;-88
2022/04/16 02:12:51;;;;;;;13.27;9.00;;;;;;;;;;4957418;29;20248;-87
2022/04/16 02:15:21;;;;;;;5.63;5.10;;;;;;;;;;4957904;29;20212;-88
2022/04/16 02:17:50;;;;;;;14.80;10.77;;;;;;;;;;4957802;29;20250;-87
2022/04/16 02:20:18;;;;;;;14.33;10.80;;;;;;;;;;4957439;29;20229;-87
2022/04/16 02:22:47;;;;;;;13.40;9.83;;;;;;;;;;4957419;29;20239;-88
2022/04/16 02:25:17;;;;;;;14.20;9.60;;;;;;;;;;4957076;29;20304;-88
2022/04/16 02:27:45;;;;;;;15.90;10.77;;;;;;;;;;4957610;29;20204;-88
2022/04/16 02:30:14;;;;;;;14.97;11.20;;;;;;;;;;4957449;29;20202;-87
2022/04/16 02:32:45;;;;;;;15.17;10.53;;;;;;;;;;4957044;29;20211;-88
2022/04/16 02:35:14;;;;;;;14.47;10.70;;;;;;;;;;4957109;29;20212;-88
2022/04/16 02:37:42;;;;;;;18.57;12.60;;;;;;;;;;4956975;28;20263;-88
2022/04/16 02:40:11;;;;;;;9.53;8.20;;;;;;;;;;4957036;29;20229;-87
2022/04/16 02:42:41;;;;;;;14.00;10.33;;;;;;;;;;4957515;29;20248;-88
2022/04/16 02:47:58;;;;;;;10.90;9.77;;;;;;;;;;4957461;29;20210;-88
2022/04/16 02:50:28;;;;;;;17.87;12.10;;;;;;;;;;4957970;28;20201;-88
2022/04/16 02:52:58;;;;;;;14.07;8.27;;;;;;;;;;4957307;29;20208;-88
2022/04/16 02:55:27;;;;;;;10.30;6.47;;;;;;;;;;4956749;29;20218;-88
2022/04/16 02:57:55;;;;;;;15.60;11.87;;;;;;;;;;4956790;29;20216;-88
2022/04/16 03:00:26;;;;;;;12.53;10.03;;;;;;;;;;4956643;29;20228;-88
2022/04/16 03:02:54;;;;;;;10.77;7.73;;;;;;;;;;4957280;29;20200;-88
2022/04/16 03:05:24;;;;;;;13.23;5.90;;;;;;;;;;4971351;28;20269;-88
2022/04/16 03:07:52;;;;;;;12.50;9.33;;;;;;;;;;4938662;29;20203;-88
2022/04/16 03:10:21;;;;;;;8.97;6.77;;;;;;;;;;4937350;29;20245;-88
2022/04/16 03:12:51;;;;;;;14.40;8.20;;;;;;;;;;4938861;29;20217;-88
2022/04/16 03:18:07;;;;;;;11.00;6.37;;;;;;;;;;4937607;29;20267;-88
2022/04/16 03:20:37;;;;;;;12.47;7.87;;;;;;;;;;4937150;29;20230;-88
2022/04/16 03:23:06;;;;;;;7.23;5.37;;;;;;;;;;4937214;29;20259;-88
2022/04/16 03:25:34;;;;;;;7.53;6.80;;;;;;;;;;4937300;29;20236;-88
2022/04/16 03:28:03;;;;;;;4.47;4.07;;;;;;;;;;4938247;29;20325;-88
2022/04/16 03:30:32;;;;;;;8.93;5.27;;;;;;;;;;4937245;29;20204;-88
2022/04/16 03:33:00;;;;;;;3.60;3.30;;;;;;;;;;4937068;29;20213;-88
2022/04/16 03:35:29;;;;;;;6.23;4.53;;;;;;;;;;4936750;29;20224;-88
2022/04/16 03:37:58;;;;;;;5.97;5.50;;;;;;;;;;4936986;29;20215;-88
2022/04/16 03:40:27;;;;;;;7.83;4.73;;;;;;;;;;4937062;29;20240;-88
2022/04/16 03:42:58;;;;;;;2.47;2.30;;;;;;;;;;4936980;29;20207;-88
2022/04/16 03:45:27;;;;;;;3.47;3.17;;;;;;;;;;4936607;29;20306;-88
2022/04/16 03:47:57;;;;;;;1.27;1.27;;;;;;;;;;4936896;29;20204;-88
2022/04/16 03:50:25;;;;;;;6.90;6.10;;;;;;;;;;4937132;29;20209;-88
2022/04/16 03:52:55;;;;;;;3.37;3.07;;;;;;;;;;4937946;29;20201;-89
2022/04/16 04:00:59;;;;;;;2.60;2.40;;;;;;;;;;4936548;29;20225;-89
2022/04/16 04:03:27;;;;;;;1.83;1.70;;;;;;;;;;4936444;29;20205;-88
2022/04/16 04:05:57;;;;;;;2.23;2.17;;;;;;;;;;4941862;29;20234;-88
2022/04/16 04:08:26;;;;;;;14.20;2.27;;;;;;;;;;4955564;29;20211;-88
2022/04/16 04:10:56;;;;;;;3.27;2.77;;;;;;;;;;4955203;29;20242;-88
2022/04/16 04:13:24;;;;;;;2.43;2.23;;;;;;;;;;4955507;29;20211;-88
2022/04/16 04:15:53;;;;;;;2.60;2.40;;;;;;;;;;4971532;28;20204;-88
2022/04/16 04:18:24;;;;;;;3.40;3.10;;;;;;;;;;4955574;29;20203;-88
2022/04/16 04:20:53;;;;;;;2.87;2.67;;;;;;;;;;4955362;29;20226;-89
2022/04/16 04:23:22;;;;;;;4.33;3.17;;;;;;;;;;4955285;29;20212;-88
2022/04/16 04:25:50;;;;;;;1.30;1.30;;;;;;;;;;4955587;29;20210;-88
2022/04/16 04:28:20;;;;;;;0.70;0.70;;;;;;;;;;4955208;29;20208;-88
2022/04/16 04:30:49;;;;;;;1.37;1.33;;;;;;;;;;4955305;29;20212;-87
2022/04/16 04:33:17;;;;;;;0.70;0.70;;;;;;;;;;4955397;28;20219;-88
2022/04/16 04:35:45;;;;;;;1.23;1.23;;;;;;;;;;4954790;29;20233;-88
2022/04/16 04:38:14;;;;;;;0.60;0.60;;;;;;;;;;4955333;29;20202;-89
2022/04/16 04:40:42;;;;;;;0.70;0.70;;;;;;;;;;4955213;29;20235;-88
2022/04/16 04:43:11;;;;;;;2.77;1.10;;;;;;;;;;4955065;29;20230;-88
2022/04/16 04:45:41;;;;;;;0.80;0.80;;;;;;;;;;4956469;28;20242;-88
2022/04/16 04:48:09;;;;;;;0.70;0.70;;;;;;;;;;4955277;29;20211;-88
2022/04/16 04:50:38;;;;;;;0.70;0.70;;;;;;;;;;4970749;28;20203;-88
2022/04/16 04:53:06;;;;;;;0.73;0.73;;;;;;;;;;4954849;29;20222;-88
2022/04/16 04:55:35;;;;;;;1.37;1.37;;;;;;;;;;4954526;29;20204;-88
2022/04/16 04:58:03;;;;;;;0.70;0.70;;;;;;;;;;4955865;28;20222;-89
2022/04/16 05:00:32;;;;;;;1.97;1.87;;;;;;;;;;4954502;29;20212;-88
2022/04/16 05:03:01;;;;;;;3.40;3.10;;;;;;;;;;4954570;29;20208;-89
2022/04/16 05:05:30;;;;;;;8.00;7.20;;;;;;;;;;4951977;29;20224;-88
2022/04/16 05:07:58;;;;;;;2.13;2.00;;;;;;;;;;4935653;29;20235;-89
2022/04/16 05:10:27;;;;;;;2.10;2.00;;;;;;;;;;4935097;29;20249;-88
2022/04/16 05:12:58;;;;;;;6.57;5.97;;;;;;;;;;4935561;29;20211;-88
2022/04/16 05:15:26;;;;;;;5.10;3.60;;;;;;;;;;4935491;29;20204;-88
2022/04/16 05:17:55;;;;;;;4.73;4.37;;;;;;;;;;4936458;29;20235;-89
2022/04/16 05:20:24;;;;;;;5.47;4.50;;;;;;;;;;4935009;29;20212;-88
2022/04/16 05:22:53;;;;;;;2.27;2.10;;;;;;;;;;4935406;29;20224;-88
2022/04/16 05:25:21;;;;;;;5.60;4.57;;;;;;;;;;4935366;29;20212;-88
2022/04/16 05:27:50;;;;;;;8.13;5.80;;;;;;;;;;4935269;29;20207;-88
2022/04/16 05:30:25;;;;;;;8.03;7.23;;;;;;;;;;4935278;29;20207;-88
2022/04/16 05:32:56;;;;;;;7.53;6.57;;;;;;;;;;4935109;29;20198;-89
2022/04/16 05:35:26;;;;;;;8.90;8.03;;;;;;;;;;4935448;29;20209;-88
2022/04/16 05:37:54;;;;;;;2.00;1.90;;;;;;;;;;4936011;29;20288;-89
2022/04/16 05:40:28;;;;;;;2.07;1.97;;;;;;;;;;4934964;29;20322;-89
2022/04/16 05:42:57;;;;;;;7.37;6.63;;;;;;;;;;4935191;29;20233;-87
2022/04/16 05:45:25;;;;;;;7.30;5.97;;;;;;;;;;4935358;29;20203;-87
2022/04/16 05:47:53;;;;;;;3.50;3.20;;;;;;;;;;4939291;29;20208;-87
2022/04/16 05:50:22;;;;;;;12.33;7.70;;;;;;;;;;4938423;29;20206;-87
2022/04/16 05:52:52;;;;;;;5.67;4.83;;;;;;;;;;4938345;29;20204;-87
2022/04/16 05:55:21;;;;;;;13.20;7.53;;;;;;;;;;4938354;29;20196;-87
2022/04/16 05:57:49;;;;;;;14.27;9.53;;;;;;;;;;4938216;29;20212;-87
2022/04/16 06:00:18;;;;;;;10.57;9.50;;;;;;;;;;4938310;29;20204;-87
2022/04/16 06:02:46;;;;;;;5.93;5.33;;;;;;;;;;4937982;29;20229;-87
2022/04/16 06:05:15;;;;;;;6.43;2.60;;;;;;;;;;4938523;29;20236;-87
2022/04/16 06:07:43;;;;;;;8.73;6.10;;;;;;;;;;4958248;28;20215;-87
2022/04/16 06:10:13;;;;;;;6.07;5.03;;;;;;;;;;4957135;29;20199;-87
2022/04/16 06:12:44;;;;;;;6.57;4.93;;;;;;;;;;4957417;29;20199;-87
2022/04/16 06:15:13;;;;;;;21.00;14.73;;;;;;;;;;4957046;29;20222;-87
2022/04/16 06:17:41;;;;;;;13.17;10.57;;;;;;;;;;4958010;29;20208;-87
2022/04/16 06:20:11;;;;;;;20.43;11.90;;;;;;;;;;4957079;29;20215;-87
2022/04/16 06:22:39;;;;;;;15.77;11.80;;;;;;;;;;4956738;29;20220;-87
2022/04/16 06:25:08;;;;;;;14.33;11.03;;;;;;;;;;4957257;29;20212;-87
2022/04/16 06:27:39;;;;;;;11.57;9.50;;;;;;;;;;4956952;29;20206;-87
2022/04/16 06:30:09;;;;;;;15.13;11.37;;;;;;;;;;4956690;29;20204;-87
2022/04/16 06:32:38;;;;;;;22.53;15.93;;;;;;;;;;4956969;29;20206;-87
2022/04/16 06:35:07;;;;;;;27.57;18.17;;;;;;;;;;4956801;29;20297;-87
2022/04/16 06:37:35;;;;;;;32.30;20.47;;;;;;;;;;4956622;29;20219;-87
2022/04/16 06:40:05;;;;;;;26.00;18.73;;;;;;;;;;4956975;29;20205;-87
2022/04/16 06:42:34;;;;;;;22.73;17.93;;;;;;;;;;4956819;29;20225;-87
2022/04/16 06:45:04;;;;;;;31.63;24.93;;;;;;;;;;4956888;29;20224;-87
2022/04/16 06:47:32;;;;;;;32.43;23.90;;;;;;;;;;4956747;29;20291;-87
2022/04/16 06:50:01;;;;;;;22.67;17.17;;;;;;;;;;4956412;29;20251;-87
2022/04/16 06:52:29;;;;;;;18.60;13.87;;;;;;;;;;4956644;29;20292;-86
2022/04/16 06:54:58;;;;;;;29.03;17.33;;;;;;;;;;4956467;29;20212;-87
2022/04/16 06:57:27;;;;;;;33.00;21.97;;;;;;;;;;4957148;28;20205;-87
2022/04/16 07:00:04;;;;;;;22.93;15.73;;;;;;;;;;4956530;29;20240;-87
2022/04/16 07:02:33;;;;;;;28.83;17.97;;;;;;;;;;4956350;29;20217;-87
2022/04/16 07:05:02;;;;;;;25.60;16.13;;;;;;;;;;4956439;29;20213;-87
2022/04/16 07:07:31;;;;;;;18.90;13.70;;;;;;;;;;4937593;29;20237;-87
2022/04/16 07:10:00;;;;;;;20.67;14.20;;;;;;;;;;4936987;29;20211;-87
2022/04/16 07:12:28;;;;;;;32.70;22.83;;;;;;;;;;4937159;29;20265;-87
2022/04/16 07:14:57;;;;;;;28.80;19.07;;;;;;;;;;4937005;29;20293;-87
2022/04/16 07:17:28;;;;;;;31.37;16.43;;;;;;;;;;4937580;29;20216;-86
2022/04/16 07:19:57;;;;;;;21.33;14.53;;;;;;;;;;4937165;29;20233;-86
2022/04/16 07:22:25;;;;;;;9.03;7.50;;;;;;;;;;4936617;29;20239;-86
2022/04/16 07:24:54;;;;;;;29.83;23.73;;;;;;;;;;4937056;29;20209;-86
2022/04/16 07:27:22;;;;;;;30.83;22.00;;;;;;;;;;4936457;29;20214;-86
2022/04/16 07:29:58;;;;;;;30.20;21.80;;;;;;;;;;4936839;29;20288;-86
2022/04/16 07:32:27;;;;;;;31.70;20.07;;;;;;;;;;4936493;29;20213;-87
2022/04/16 07:34:56;;;;;;;25.10;17.50;;;;;;;;;;4936996;29;20213;-87
2022/04/16 07:37:24;;;;;;;29.53;21.03;;;;;;;;;;4936352;29;20202;-86
2022/04/16 07:39:53;;;;;;;25.57;18.97;;;;;;;;;;4936364;29;20218;-87
2022/04/16 07:42:21;;;;;;;25.70;18.93;;;;;;;;;;4936643;29;20226;-87
2022/04/16 07:44:49;;;;;;;23.20;15.60;;;;;;;;;;4936378;29;20206;-87
2022/04/16 07:47:18;;;;;;;20.93;16.27;;;;;;;;;;4936284;29;20210;-87
2022/04/16 07:49:48;;;;;;;25.80;18.93;;;;;;;;;;4936142;29;20209;-87
2022/04/16 07:52:16;;;;;;;24.93;13.50;;;;;;;;;;4937212;29;20209;-87
2022/04/16 07:54:45;;;;;;;21.10;15.77;;;;;;;;;;4936035;29;20215;-87
2022/04/16 07:57:15;;;;;;;21.13;18.37;;;;;;;;;;4937482;29;20202;-87
2022/04/16 07:59:43;;;;;;;18.60;13.97;;;;;;;;;;4935875;29;20285;-87
2022/04/16 08:02:13;;;;;;;20.73;15.23;;;;;;;;;;4936267;29;20203;-87
2022/04/16 08:04:41;;;;;;;17.87;14.03;;;;;;;;;;4935752;29;20202;-87
2022/04/16 08:07:11;;;;;;;20.10;14.27;;;;;;;;;;4937214;29;20230;-87
2022/04/16 08:09:39;;;;;;;24.60;16.93;;;;;;;;;;4935345;29;20202;-87
2022/04/16 08:12:08;;;;;;;17.97;12.70;;;;;;;;;;4935842;29;20297;-87
2022/04/16 08:14:37;;;;;;;17.77;14.07;;;;;;;;;;4935776;29;20207;-87
2022/04/16 08:17:05;;;;;;;21.10;15.03;;;;;;;;;;4936084;29;20213;-87
2022/04/16 08:19:34;;;;;;;20.10;14.73;;;;;;;;;;4935729;29;20202;-87
2022/04/16 08:22:06;;;;;;;12.57;9.70;;;;;;;;;;4935846;29;20206;-87
2022/04/16 08:24:41;;;;;;;18.30;12.87;;;;;;;;;;4935795;29;20245;-87
2022/04/16 08:27:10;;;;;;;16.50;11.57;;;;;;;;;;4935500;29;20304;-87
2022/04/16 08:29:38;;;;;;;15.13;10.80;;;;;;;;;;4935567;29;20206;-87
2022/04/16 08:32:08;;;;;;;14.37;8.20;;;;;;;;;;4935676;29;20214;-87
2022/04/16 08:34:50;;;;;;;16.20;12.33;;;;;;;;;;4936813;29;20202;-87
2022/04/16 08:37:19;;;;;;;14.93;12.07;;;;;;;;;;4935628;29;20203;-87
2022/04/16 08:39:49;;;;;;;10.67;8.93;;;;;;;;;;4936584;29;20226;-87
2022/04/16 08:42:17;;;;;;;15.40;12.10;;;;;;;;;;4935260;29;20232;-89
2022/04/16 08:44:46;;;;;;;18.07;14.70;;;;;;;;;;4935015;29;20329;-87
2022/04/16 08:47:14;;;;;;;12.23;9.33;;;;;;;;;;4935543;29;20253;-87
2022/04/16 08:49:44;;;;;;;15.63;12.20;;;;;;;;;;4935591;29;20207;-87
2022/04/16 08:52:12;;;;;;;11.40;9.63;;;;;;;;;;4935397;29;20202;-87
2022/04/16 08:54:41;;;;;;;15.60;12.50;;;;;;;;;;4935237;29;20205;-88
2022/04/16 08:57:10;;;;;;;10.00;5.00;;;;;;;;;;4935149;29;20210;-88
2022/04/16 08:59:39;;;;;;;11.63;9.40;;;;;;;;;;4935020;29;20206;-87
2022/04/16 09:02:07;;;;;;;18.50;13.20;;;;;;;;;;4934979;29;20266;-88
2022/04/16 09:04:36;;;;;;;9.70;7.37;;;;;;;;;;4935051;29;20221;-87
2022/04/16 09:07:05;;;;;;;12.03;8.53;;;;;;;;;;4935845;29;20278;-87
2022/04/16 09:09:34;;;;;;;11.03;7.37;;;;;;;;;;4934808;29;20298;-88
2022/04/16 09:12:03;;;;;;;13.77;11.87;;;;;;;;;;4934178;29;20242;-87
2022/04/16 09:14:36;;;;;;;14.80;10.57;;;;;;;;;;4933992;29;20255;-88
2022/04/16 09:17:09;;;;;;;11.57;9.03;;;;;;;;;;4934336;29;20207;-88
2022/04/16 09:19:37;;;;;;;12.20;7.03;;;;;;;;;;4934066;29;20206;-87
2022/04/16 09:22:06;;;;;;;12.20;8.33;;;;;;;;;;4934247;29;20241;-86
2022/04/16 09:24:47;;;;;;;14.03;9.90;;;;;;;;;;4933925;29;20223;-88
2022/04/16 09:27:15;;;;;;;14.13;9.33;;;;;;;;;;4934198;29;20206;-87
2022/04/16 09:29:46;;;;;;;15.53;12.00;;;;;;;;;;4933842;29;20207;-88
2022/04/16 09:32:22;;;;;;;16.00;13.90;;;;;;;;;;4934059;29;20198;-87
2022/04/16 09:34:50;;;;;;;13.00;10.03;;;;;;;;;;4934959;29;20214;-88
2022/04/16 09:37:19;;;;;;;12.23;8.30;;;;;;;;;;4933940;29;20211;-87
2022/04/16 09:39:47;;;;;;;13.53;11.43;;;;;;;;;;4933781;29;20206;-87
2022/04/16 09:42:25;;;;;;;13.50;8.37;;;;;;;;;;4933940;29;20214;-87
2022/04/16 09:44:55;;;;;;;9.60;8.63;;;;;;;;;;4933795;29;20322;-87
2022/04/16 09:47:25;;;;;;;12.97;10.33;;;;;;;;;;4933727;29;20243;-87
2022/04/16 09:49:55;;;;;;;15.00;11.73;;;;;;;;;;4933701;29;20194;-87
2022/04/16 09:52:25;;;;;;;12.47;10.67;;;;;;;;;;4934690;29;20198;-87
2022/04/16 09:54:53;;;;;;;12.73;11.27;;;;;;;;;;4933840;29;20266;-88
2022/04/16 09:57:25;;;;;;;16.37;11.07;;;;;;;;;;4933721;29;20203;-87
2022/04/16 09:59:56;;;;;;;12.80;9.10;;;;;;;;;;4933846;29;20211;-87
2022/04/16 10:02:25;;;;;;;11.27;8.80;;;;;;;;;;4934220;29;20212;-87
2022/04/16 10:04:54;;;;;;;7.93;5.07;;;;;;;;;;4933312;29;20228;-87
2022/04/16 10:07:22;;;;;;;10.67;8.87;;;;;;;;;;4950916;29;20210;-87
2022/04/16 10:09:53;;;;;;;10.93;8.93;;;;;;;;;;4952555;29;20216;-87
2022/04/16 10:15:42;;;;;;;9.13;7.67;;;;;;;;;;5070028;28;20249;-88
2022/04/16 10:18:12;;;;;;;16.80;12.20;;;;;;;;;;5052302;28;20208;-87
2022/04/16 10:20:51;;;;;;;12.40;9.10;;;;;;;;;;5052248;28;20197;-88
2022/04/16 10:23:27;;;;;;;6.73;6.03;;;;;;;;;;5052639;28;20206;-87
2022/04/16 10:26:01;;;;;;;11.33;8.37;;;;;;;;;;5052392;28;20199;-87
2022/04/16 10:28:38;;;;;;;12.60;8.67;;;;;;;;;;5052166;28;20225;-87
2022/04/16 10:31:06;;;;;;;11.97;10.70;;;;;;;;;;5052571;28;20227;-88
2022/04/16 10:33:35;;;;;;;9.90;8.27;;;;;;;;;;5069981;28;20205;-87
2022/04/16 10:36:09;;;;;;;11.70;9.27;;;;;;;;;;5069950;28;20205;-87
2022/04/16 10:38:38;;;;;;;5.20;4.70;;;;;;;;;;5052168;28;20200;-87
2022/04/16 10:41:11;;;;;;;11.23;8.13;;;;;;;;;;5052327;28;20204;-87
2022/04/16 10:43:59;;;;;;;8.40;6.60;;;;;;;;;;5052247;28;20294;-87
2022/04/16 10:46:40;;;;;;;7.63;5.73;;;;;;;;;;5052226;28;20233;-87
2022/04/16 10:49:09;;;;;;;10.30;8.30;;;;;;;;;;5052241;28;20214;-88
2022/04/16 10:51:38;;;;;;;14.70;8.50;;;;;;;;;;5051895;28;20224;-88
2022/04/16 10:54:10;;;;;;;7.07;5.40;;;;;;;;;;5052086;28;20308;-88
2022/04/16 10:56:40;;;;;;;11.43;7.70;;;;;;;;;;5052012;28;20208;-88
2022/04/16 10:59:11;;;;;;;5.07;3.33;;;;;;;;;;5052113;28;20217;-88
2022/04/16 11:01:40;;;;;;;8.27;7.43;;;;;;;;;;5051906;28;20208;-88
2022/04/16 11:04:15;;;;;;;8.07;6.10;;;;;;;;;;5069411;28;20203;-88
2022/04/16 11:06:45;;;;;;;13.73;10.07;;;;;;;;;;5035364;28;20236;-88
2022/04/16 11:09:13;;;;;;;7.63;6.90;;;;;;;;;;5031639;28;20204;-88
2022/04/16 11:11:43;;;;;;;7.60;6.73;;;;;;;;;;5031500;28;20236;-88
2022/04/16 11:14:14;;;;;;;6.67;4.43;;;;;;;;;;5031644;28;20216;-88
2022/04/16 11:16:47;;;;;;;4.33;3.80;;;;;;;;;;5049164;28;20200;-88
2022/04/16 11:19:16;;;;;;;8.97;7.80;;;;;;;;;;5031323;28;20202;-88
2022/04/16 11:21:45;;;;;;;7.20;6.17;;;;;;;;;;5030616;28;20214;-88
2022/04/16 11:24:15;;;;;;;2.40;2.20;;;;;;;;;;5018046;28;20208;-88
2022/04/16 11:35:05;;;;;;;10.70;6.97;;;;;;;;;;5018110;28;20204;-88
2022/04/16 11:37:34;;;;;;;5.63;3.83;;;;;;;;;;5035708;28;20237;-88
2022/04/16 11:40:03;;;;;;;6.83;5.97;;;;;;;;;;5017834;28;20209;-88
2022/04/16 11:42:31;;;;;;;9.87;7.23;;;;;;;;;;5018010;28;20199;-88
2022/04/16 11:45:02;;;;;;;5.80;3.80;;;;;;;;;;5018031;28;20219;-88
2022/04/16 11:47:31;;;;;;;7.50;4.73;;;;;;;;;;5017531;28;20206;-88
2022/04/16 11:50:03;;;;;;;7.73;6.47;;;;;;;;;;5017986;28;20209;-88
2022/04/16 11:52:33;;;;;;;8.40;6.47;;;;;;;;;;5017764;28;20222;-88
2022/04/16 11:55:02;;;;;;;6.90;6.07;;;;;;;;;;5017473;28;20198;-87
2022/04/16 11:57:30;;;;;;;11.10;7.23;;;;;;;;;;5017645;28;20206;-88
2022/04/16 11:59:59;;;;;;;6.73;5.87;;;;;;;;;;5018038;28;20207;-88
2022/04/16 12:02:33;;;;;;;7.40;6.13;;;;;;;;;;5017629;28;20240;-88
2022/04/16 12:05:08;;;;;;;6.60;4.40;;;;;;;;;;5017426;28;20205;-88
2022/04/16 12:07:37;;;;;;;8.43;6.37;;;;;;;;;;5037075;28;20216;-88
2022/04/16 12:10:06;;;;;;;5.80;5.17;;;;;;;;;;5037514;28;20222;-88
2022/04/16 12:12:42;;;;;;;5.83;4.07;;;;;;;;;;5036983;28;20256;-88
2022/04/16 12:15:10;;;;;;;5.87;4.17;;;;;;;;;;5037405;28;20262;-88
2022/04/16 12:17:41;;;;;;;5.57;4.70;;;;;;;;;;5037002;28;20205;-88
2022/04/16 12:20:11;;;;;;;9.23;7.23;;;;;;;;;;5037290;28;20207;-88
2022/04/16 12:22:48;;;;;;;7.87;6.27;;;;;;;;;;5054809;28;20391;-88
2022/04/16 12:25:17;;;;;;;6.33;5.73;;;;;;;;;;5036727;28;20225;-88
2022/04/16 12:27:47;;;;;;;4.13;3.67;;;;;;;;;;5054358;28;20224;-88
2022/04/16 12:30:16;;;;;;;2.37;2.20;;;;;;;;;;5036975;28;20209;-88
2022/04/16 12:32:57;;;;;;;4.87;3.70;;;;;;;;;;5036593;28;20316;-88
2022/04/16 12:35:25;;;;;;;4.90;4.17;;;;;;;;;;5035756;28;20265;-88
2022/04/16 12:37:54;;;;;;;6.30;4.67;;;;;;;;;;5037186;28;20203;-88
2022/04/16 12:40:23;;;;;;;4.83;3.90;;;;;;;;;;5036976;28;20208;-88
2022/04/16 12:42:52;;;;;;;6.47;5.70;;;;;;;;;;5036832;28;20190;-88
2022/04/16 12:45:22;;;;;;;5.47;4.93;;;;;;;;;;5036759;28;20293;-88
2022/04/16 12:47:51;;;;;;;5.50;4.00;;;;;;;;;;5036658;28;20213;-88
2022/04/16 12:50:21;;;;;;;7.07;6.37;;;;;;;;;;5036416;28;20258;-88
2022/04/16 12:52:50;;;;;;;5.07;4.07;;;;;;;;;;5036464;28;20218;-88
2022/04/16 12:55:19;;;;;;;4.53;4.13;;;;;;;;;;5035948;28;20216;-88
2022/04/16 12:57:48;;;;;;;5.23;3.83;;;;;;;;;;5036130;28;20206;-88
2022/04/16 13:00:17;;;;;;;5.13;4.50;;;;;;;;;;5036271;28;20212;-85
2022/04/16 13:02:46;;;;;;;4.57;3.90;;;;;;;;;;5035830;28;20304;-88
2022/04/16 13:05:16;;;;;;;4.40;3.37;;;;;;;;;;5035663;28;20222;-88
2022/04/16 13:07:46;;;;;;;9.77;4.33;;;;;;;;;;5049321;28;20199;-88
2022/04/16 13:10:15;;;;;;;5.83;3.17;;;;;;;;;;5049720;28;20207;-88
2022/04/16 13:12:44;;;;;;;5.77;5.20;;;;;;;;;;5033791;28;20221;-88
2022/04/16 13:15:13;;;;;;;3.67;3.37;;;;;;;;;;5016307;28;20209;-88
2022/04/16 13:17:41;;;;;;;5.43;4.90;;;;;;;;;;5049451;28;20213;-88
2022/04/16 13:20:12;;;;;;;3.57;3.17;;;;;;;;;;5049413;28;20240;-88
2022/04/16 13:22:42;;;;;;;3.00;2.77;;;;;;;;;;5033719;28;20206;-88
2022/04/16 13:25:12;;;;;;;6.37;4.30;;;;;;;;;;5049399;28;20207;-87
2022/04/16 13:27:40;;;;;;;7.80;6.63;;;;;;;;;;5015770;28;20202;-87
2022/04/16 13:30:09;;;;;;;4.67;3.47;;;;;;;;;;5048864;28;20217;-88
2022/04/16 13:32:37;;;;;;;6.63;5.90;;;;;;;;;;5015926;28;20226;-88
2022/04/16 13:35:06;;;;;;;7.27;5.97;;;;;;;;;;5049123;28;20210;-88
2022/04/16 13:37:35;;;;;;;9.63;7.17;;;;;;;;;;5015787;28;20210;-88
2022/04/16 13:42:53;;;;;;;6.53;5.47;;;;;;;;;;5023713;28;20205;-87
2022/04/16 13:45:21;;;;;;;4.10;3.57;;;;;;;;;;5048580;28;20210;-88
2022/04/16 13:47:50;;;;;;;10.60;5.70;;;;;;;;;;5015639;28;20203;-88
2022/04/16 13:50:19;;;;;;;5.10;2.77;;;;;;;;;;5015906;28;20214;-88
2022/04/16 13:52:47;;;;;;;5.87;4.40;;;;;;;;;;5032965;28;20282;-88
2022/04/16 13:55:16;;;;;;;5.67;5.03;;;;;;;;;;5048465;28;20329;-87
2022/04/16 13:57:44;;;;;;;7.17;4.33;;;;;;;;;;5015287;28;20206;-88
2022/04/16 14:00:15;;;;;;;6.10;4.87;;;;;;;;;;5015507;28;20208;-88
2022/04/16 14:02:44;;;;;;;4.07;3.67;;;;;;;;;;5048496;28;20193;-88
2022/04/16 14:07:59;;;;;;;5.70;4.80;;;;;;;;;;4996016;28;20208;-88
2022/04/16 14:10:28;;;;;;;5.43;4.93;;;;;;;;;;5013135;28;20210;-88
2022/04/16 14:12:57;;;;;;;7.90;5.73;;;;;;;;;;4995928;28;20262;-88
2022/04/16 14:15:27;;;;;;;5.07;4.57;;;;;;;;;;4995621;28;20209;-88
2022/04/16 14:17:56;;;;;;;4.97;4.53;;;;;;;;;;4995848;28;20202;-88
2022/04/16 14:20:24;;;;;;;2.80;2.23;;;;;;;;;;4995738;28;20217;-88
2022/04/16 14:22:53;;;;;;;5.00;4.17;;;;;;;;;;4995897;28;20285;-88
2022/04/16 14:25:21;;;;;;;4.53;3.90;;;;;;;;;;4995777;28;20234;-88
2022/04/16 14:27:50;;;;;;;6.90;5.60;;;;;;;;;;4995897;28;20217;-88
2022/04/16 14:30:20;;;;;;;4.77;4.07;;;;;;;;;;4995478;28;20205;-88
2022/04/16 14:32:50;;;;;;;6.23;4.30;;;;;;;;;;4995702;28;20250;-88
2022/04/16 14:35:18;;;;;;;4.63;3.47;;;;;;;;;;4995751;28;20204;-88
2022/04/16 14:37:46;;;;;;;4.63;3.77;;;;;;;;;;4995293;28;20209;-88
2022/04/16 14:40:15;;;;;;;2.93;2.63;;;;;;;;;;4995761;28;20215;-88
2022/04/16 14:42:44;;;;;;;4.17;3.87;;;;;;;;;;4995470;28;20211;-88
2022/04/16 14:45:17;;;;;;;4.87;3.90;;;;;;;;;;4995592;28;20296;-88
2022/04/16 14:47:46;;;;;;;5.17;4.30;;;;;;;;;;4995530;28;20207;-88
2022/04/16 14:50:16;;;;;;;3.57;3.00;;;;;;;;;;4995535;28;20218;-88
2022/04/16 14:52:44;;;;;;;4.10;3.60;;;;;;;;;;4995439;28;20207;-88
2022/04/16 14:55:13;;;;;;;2.50;2.30;;;;;;;;;;5012785;28;20195;-88
2022/04/16 14:57:43;;;;;;;4.43;3.20;;;;;;;;;;4996191;28;20230;-88
2022/04/16 15:00:12;;;;;;;3.57;2.93;;;;;;;;;;4999279;28;20207;-88
2022/04/16 15:02:41;;;;;;;4.00;3.60;;;;;;;;;;5016257;28;20293;-88
2022/04/16 15:05:11;;;;;;;3.20;2.67;;;;;;;;;;4999202;28;20232;-88
2022/04/16 15:07:41;;;;;;;3.60;3.30;;;;;;;;;;5016071;28;20208;-88
2022/04/16 15:10:10;;;;;;;4.90;2.43;;;;;;;;;;4999046;28;20215;-88
2022/04/16 15:12:39;;;;;;;3.20;2.90;;;;;;;;;;4998568;28;20242;-88
2022/04/16 15:15:08;;;;;;;3.07;2.63;;;;;;;;;;5016357;28;20226;-88